METAR Data
IDs: Format: Raw Decoded Include TAF

Data at: 0109 UTC 06 Dec 2019

KNQA 060050Z 11005KT 10SM BKN120 12/04 A3004
KNQA 052350Z 13004KT 10SM CLR 12/02 A3004
KNQA 052250Z 14006KT 10SM FEW090 FEW110 14/02 A3003
KNQA 052150Z 15004KT 10SM SCT120 16/02 A3004
KNQA 052050Z 16005KT 10SM CLR 16/02 A3005
KNQA 051950Z 15005KT 10SM FEW110 16/02 A3005
KNQA 051850Z 16006G12KT 10SM FEW120 16/02 A3006
KNQA 051750Z 15006G11KT 10SM OVC110 15/02 A3009
KNQA 051650Z 114005KT 10SM CLR 13/04 A3010
KNQA 051550Z 12004KT 10SM CLR 10/05 A3011
KNQA 051450Z 12004KT 10SM CLR 08/04 A3011
KNQA 051350Z 11004KT 10SM CLR 05/04 A3010
KNQA 051250Z 11004KT 10SM CLR 03/02 A3010
KNQA 051150Z 00000KT 10SM CLR 04/03 A3008
KNQA 051130Z 00000KT 10SM CLR 04/03 A3007
KNQA 051110Z AUTO 00000KT 10SM CLR 04/03 A3007 RMK A01
KNQA 051055Z AUTO 00000KT 10SM CLR 04/03 A3006 RMK A01
KNQA 051035Z AUTO 00000KT 10SM CLR 05/03 A3005 RMK A01
KNQA 051015Z AUTO 00000KT 10SM CLR 04/03 A3005 RMK A01
KNQA 050955Z AUTO 00000KT 10SM CLR 04/03 A3005 RMK A01
KNQA 050935Z AUTO 00000KT 10SM CLR 04/02 A3006 RMK A01
KNQA 050915Z AUTO 21003KT 10SM CLR 04/03 A3006 RMK A01
KNQA 050855Z AUTO 00000KT 10SM CLR 04/03 A3005 RMK A01
KNQA 050835Z AUTO 00000KT 10SM CLR 04/03 A3004 RMK A01
KNQA 050815Z AUTO 00000KT 10SM CLR 05/02 A3004 RMK A01
KNQA 050755Z AUTO 00000KT 10SM CLR 05/03 A3004 RMK A01
KNQA 050735Z AUTO 00000KT 10SM CLR 05/02 A3003 RMK A01
KNQA 050650Z 00000KT 10SM CLR 05/02 A3003
KNQA 050550Z 00000KT 10SM CLR 06/02 A3002
KNQA 050450Z 00000KT 10SM CLR 07/02 A3002
KNQA 050350Z 00000KT 10SM CLR 07/02 A3002
KNQA 050250Z 10004KT 10SM CLR 08/01 A3001
KNQA 050150Z 00000KT 10SM CLR 09/01 A3002
KNQA 050050Z 00000KT 10SM CLR 10/01 A3000
KNQA 042350Z 00000KT 10SM CLR 11/01 A3000
KNQA 042250Z 28005KT 10SM CLR 12/01 A2999
KNQA 042150Z 30006KT 10SM CLR 15/00 A2998
KNQA 042050Z 26008KT 10SM CLR 16/00 A2997
KNQA 041950Z 28005KT 10SM CLR 15/M00 A2996
KNQA 041850Z 30008KT 10SM CLR 14/00 A2997
KNQA 041750Z 29005G12KT 10SM CLR 13/01 A2999
KNQA 041650Z 31005KT 10SM CLR 11/02 A3001
KNQA 041550Z 29007KT 10SM CLR 10/02 A3001
KNQA 041450Z 28005KT 10SM CLR 07/03 A3000
KNQA 041350Z 00000KT 10SM CLR 02/00 A2997